createdAt,value
2022-10-10T00:00:53.083Z,0.00
2022-10-10T00:01:53.107Z,0.00
2022-10-10T00:02:53.224Z,0.00
2022-10-10T00:03:53.050Z,0.00
2022-10-10T00:04:53.044Z,0.00
2022-10-10T00:05:53.029Z,0.00
2022-10-10T00:06:53.036Z,0.00
2022-10-10T00:07:53.007Z,0.00
2022-10-10T00:08:53.017Z,0.00
2022-10-10T00:09:52.986Z,0.00
2022-10-10T00:10:52.994Z,0.00
2022-10-10T00:11:52.963Z,0.00
2022-10-10T00:12:53.417Z,0.00
2022-10-10T00:13:52.941Z,0.00
2022-10-10T00:14:52.932Z,0.00
2022-10-10T00:15:52.932Z,0.00
2022-10-10T00:16:52.910Z,0.00
2022-10-10T00:17:52.898Z,0.00
2022-10-10T00:18:52.889Z,0.00
2022-10-10T00:19:52.940Z,0.00
2022-10-10T00:20:52.868Z,0.00
2022-10-10T00:21:52.864Z,0.00
2022-10-10T00:22:53.317Z,0.00
2022-10-10T00:23:52.831Z,0.00
2022-10-10T00:24:52.840Z,0.00
2022-10-10T00:25:52.812Z,0.00
2022-10-10T00:26:52.813Z,0.00
2022-10-10T00:27:52.792Z,0.00
2022-10-10T00:28:52.780Z,0.00
2022-10-10T00:29:52.768Z,0.00
2022-10-10T00:30:52.759Z,0.00
2022-10-10T00:31:52.759Z,0.00
2022-10-10T00:32:53.110Z,0.00
2022-10-10T00:33:52.724Z,0.00
2022-10-10T00:34:52.718Z,0.00
2022-10-10T00:35:52.702Z,0.00
2022-10-10T00:36:52.707Z,0.00
2022-10-10T00:37:52.681Z,0.00
2022-10-10T00:38:52.674Z,0.00
2022-10-10T00:39:52.664Z,0.00
2022-10-10T00:40:52.667Z,0.00
2022-10-10T00:41:52.653Z,0.00
2022-10-10T00:42:53.347Z,0.00
2022-10-10T00:43:52.617Z,0.00
2022-10-10T00:44:52.608Z,0.00
2022-10-10T00:45:52.596Z,0.00
2022-10-10T00:46:52.598Z,0.00
2022-10-10T00:47:52.573Z,0.00
2022-10-10T00:48:52.566Z,0.00
2022-10-10T00:49:52.553Z,0.00
2022-10-10T00:50:52.542Z,0.00
2022-10-10T00:51:52.548Z,0.00
2022-10-10T00:52:52.866Z,0.00
2022-10-10T00:53:52.511Z,0.00
2022-10-10T00:54:52.498Z,0.00
2022-10-10T00:55:52.492Z,0.00
2022-10-10T00:56:52.503Z,0.00
2022-10-10T00:57:52.470Z,0.00
2022-10-10T00:58:52.455Z,0.00
2022-10-10T00:59:52.446Z,0.00
2022-10-10T01:00:52.452Z,0.00
2022-10-10T01:01:52.434Z,0.00
2022-10-10T01:02:53.000Z,0.00
2022-10-10T01:03:52.403Z,0.00
2022-10-10T01:04:52.390Z,0.00
2022-10-10T01:05:52.390Z,0.00
2022-10-10T01:06:52.368Z,0.00
2022-10-10T01:07:52.360Z,0.00
2022-10-10T01:08:52.347Z,0.00
2022-10-10T01:09:52.340Z,0.00
2022-10-10T01:10:52.334Z,0.00
2022-10-10T01:11:52.317Z,0.00
2022-10-10T01:12:52.845Z,0.00
2022-10-10T01:13:52.301Z,0.00
2022-10-10T01:14:52.284Z,0.00
2022-10-10T01:15:52.312Z,0.00
2022-10-10T01:16:52.262Z,0.00
2022-10-10T01:17:52.252Z,0.00
2022-10-10T01:18:52.240Z,0.00
2022-10-10T01:19:52.232Z,0.00
2022-10-10T01:20:52.236Z,0.00
2022-10-10T01:21:52.207Z,0.00
2022-10-10T01:22:52.700Z,0.00
2022-10-10T01:23:52.272Z,0.00
2022-10-10T01:24:52.177Z,0.00
2022-10-10T01:25:52.179Z,0.00
2022-10-10T01:26:52.153Z,0.00
2022-10-10T01:27:52.143Z,0.00
2022-10-10T01:28:52.152Z,0.00
2022-10-10T01:29:52.123Z,0.00
2022-10-10T01:30:52.134Z,0.00
2022-10-10T01:31:52.101Z,0.00
2022-10-10T01:32:52.389Z,0.00
2022-10-10T01:33:52.079Z,0.00
2022-10-10T01:34:52.084Z,0.00
2022-10-10T01:35:52.059Z,0.00
2022-10-10T01:36:52.046Z,0.00
2022-10-10T01:37:52.039Z,0.00
2022-10-10T01:38:52.024Z,0.00
2022-10-10T01:39:52.027Z,0.00
2022-10-10T01:40:52.003Z,0.00
2022-10-10T01:41:51.993Z,0.00
2022-10-10T01:42:52.397Z,0.00
2022-10-10T01:43:51.971Z,0.00
2022-10-10T01:44:51.991Z,0.00
2022-10-10T01:45:51.953Z,0.00
2022-10-10T01:46:51.938Z,0.00
2022-10-10T01:47:51.928Z,0.00
2022-10-10T01:48:51.917Z,0.00
2022-10-10T01:49:51.931Z,0.00
2022-10-10T01:50:51.896Z,0.00
2022-10-10T01:51:51.885Z,0.00
2022-10-10T01:52:52.236Z,0.00
2022-10-10T01:53:51.866Z,0.00
2022-10-10T01:54:51.862Z,0.00
2022-10-10T01:55:51.855Z,0.00
2022-10-10T01:56:51.831Z,0.00
2022-10-10T01:57:51.825Z,0.00
2022-10-10T01:58:51.808Z,0.00
2022-10-10T01:59:51.808Z,0.00
2022-10-10T02:01:53.441Z,0.00
2022-10-10T02:02:53.869Z,0.00
2022-10-10T02:03:53.402Z,0.00
2022-10-10T02:04:53.406Z,0.00
2022-10-10T02:05:53.390Z,0.00
2022-10-10T02:06:53.370Z,0.00
2022-10-10T02:07:53.361Z,0.00
2022-10-10T02:08:53.378Z,0.00
2022-10-10T02:09:53.347Z,0.00
2022-10-10T02:10:53.323Z,0.00
2022-10-10T02:11:53.315Z,0.00
2022-10-10T02:12:53.753Z,0.00
2022-10-10T02:13:53.293Z,0.00
2022-10-10T02:14:53.288Z,0.00
2022-10-10T02:15:53.278Z,0.00
2022-10-10T02:16:53.257Z,0.00
2022-10-10T02:17:53.269Z,0.00
2022-10-10T02:18:53.238Z,0.00
2022-10-10T02:19:53.237Z,0.00
2022-10-10T02:20:53.221Z,0.00
2022-10-10T02:21:53.205Z,0.00
2022-10-10T02:22:53.770Z,0.00
2022-10-10T02:23:53.185Z,0.00
2022-10-10T02:24:53.194Z,0.00
2022-10-10T02:25:53.167Z,0.00
2022-10-10T02:26:53.149Z,0.00
2022-10-10T02:27:53.169Z,0.00
2022-10-10T02:28:53.127Z,0.00
2022-10-10T02:29:53.133Z,0.00
2022-10-10T02:30:53.109Z,0.00
2022-10-10T02:31:53.099Z,0.00
2022-10-10T02:32:53.471Z,0.00
2022-10-10T02:33:53.094Z,0.00
2022-10-10T02:34:53.078Z,0.00
2022-10-10T02:35:53.054Z,0.00
2022-10-10T02:36:53.042Z,0.00
2022-10-10T02:37:53.037Z,0.00
2022-10-10T02:38:53.065Z,0.00
2022-10-10T02:39:53.190Z,0.00
2022-10-10T02:40:53.002Z,0.00
2022-10-10T02:41:52.990Z,0.00
2022-10-10T02:42:53.512Z,0.00
2022-10-10T02:43:52.967Z,0.00
2022-10-10T02:44:52.970Z,0.00
2022-10-10T02:45:52.946Z,0.00
2022-10-10T02:46:52.938Z,0.00
2022-10-10T02:47:52.925Z,0.00
2022-10-10T02:48:52.911Z,0.00
2022-10-10T02:49:52.931Z,0.00
2022-10-10T02:50:52.890Z,0.00
2022-10-10T02:51:52.896Z,0.00
2022-10-10T02:52:53.253Z,0.00
2022-10-10T02:53:52.861Z,0.00
2022-10-10T02:54:52.858Z,0.00
2022-10-10T02:55:52.838Z,0.00
2022-10-10T02:56:52.826Z,0.00
2022-10-10T02:57:52.817Z,0.00
2022-10-10T02:58:52.807Z,0.00
2022-10-10T02:59:52.805Z,0.00
2022-10-10T03:00:52.829Z,0.00
2022-10-10T03:01:52.777Z,0.00
2022-10-10T03:02:53.176Z,0.00
2022-10-10T03:03:52.753Z,0.00
2022-10-10T03:04:52.748Z,0.00
2022-10-10T03:05:52.750Z,0.00
2022-10-10T03:06:52.722Z,0.00
2022-10-10T03:07:52.711Z,0.00
2022-10-10T03:08:52.695Z,0.00
2022-10-10T03:09:52.700Z,0.00
2022-10-10T03:10:52.706Z,0.00
2022-10-10T03:11:52.665Z,0.00
2022-10-10T03:12:52.983Z,0.00
2022-10-10T03:13:52.646Z,0.00
2022-10-10T03:14:52.645Z,0.00
2022-10-10T03:15:52.621Z,0.00
2022-10-10T03:16:52.611Z,0.00
2022-10-10T03:17:52.601Z,0.00
2022-10-10T03:18:52.588Z,0.00
2022-10-10T03:19:52.591Z,0.00
2022-10-10T03:20:52.566Z,0.00
2022-10-10T03:21:52.575Z,0.00
2022-10-10T03:22:52.880Z,0.00
2022-10-10T03:23:52.536Z,0.00
2022-10-10T03:24:52.537Z,0.00
2022-10-10T03:25:52.514Z,0.00
2022-10-10T03:26:52.501Z,0.00
2022-10-10T03:27:52.496Z,0.00
2022-10-10T03:28:52.482Z,0.00
2022-10-10T03:29:52.485Z,0.00
2022-10-10T03:30:52.460Z,0.00
2022-10-10T03:31:52.450Z,0.00
2022-10-10T03:32:52.994Z,0.00
2022-10-10T03:33:52.433Z,0.00
2022-10-10T03:34:52.424Z,0.00
2022-10-10T03:35:52.407Z,0.00
2022-10-10T03:36:52.394Z,0.00
2022-10-10T03:37:52.402Z,0.00
2022-10-10T03:38:52.370Z,0.00
2022-10-10T03:39:52.376Z,0.00
2022-10-10T03:40:52.349Z,0.00
2022-10-10T03:41:52.340Z,0.00
2022-10-10T03:42:53.069Z,0.00
2022-10-10T03:43:52.320Z,0.00
2022-10-10T03:44:52.320Z,0.00
2022-10-10T03:45:52.300Z,0.00
2022-10-10T03:46:52.287Z,0.00
2022-10-10T03:47:52.306Z,0.00
2022-10-10T03:48:52.269Z,0.00
2022-10-10T03:49:52.268Z,0.00
2022-10-10T03:50:52.246Z,0.00
2022-10-10T03:51:52.233Z,0.00
2022-10-10T03:52:52.581Z,0.00
2022-10-10T03:53:52.231Z,0.00
2022-10-10T03:54:52.227Z,0.00
2022-10-10T03:55:52.190Z,0.00
2022-10-10T03:56:52.178Z,0.00
2022-10-10T03:57:52.206Z,0.00
2022-10-10T03:58:52.172Z,0.00
2022-10-10T03:59:52.148Z,0.00
2022-10-10T04:00:52.139Z,0.00
2022-10-10T04:01:52.146Z,0.00
2022-10-10T04:02:52.422Z,0.00
2022-10-10T04:03:52.414Z,0.00
2022-10-10T04:04:52.100Z,0.00
2022-10-10T04:05:52.088Z,0.00
2022-10-10T04:06:52.069Z,0.00
2022-10-10T04:07:52.060Z,0.00
2022-10-10T04:08:52.050Z,0.00
2022-10-10T04:09:52.079Z,0.00
2022-10-10T04:10:52.025Z,0.00
2022-10-10T04:11:52.016Z,0.00
2022-10-10T04:12:52.250Z,0.00
2022-10-10T04:13:52.007Z,0.00
2022-10-10T04:14:52.013Z,0.00
2022-10-10T04:15:51.974Z,0.00
2022-10-10T04:16:51.965Z,0.00
2022-10-10T04:17:51.951Z,0.00
2022-10-10T04:18:51.949Z,0.00
2022-10-10T04:19:51.938Z,0.00
2022-10-10T04:20:51.918Z,0.00
2022-10-10T04:21:51.909Z,0.00
2022-10-10T04:22:52.279Z,0.00
2022-10-10T04:23:51.903Z,0.00
2022-10-10T04:24:51.891Z,0.00
2022-10-10T04:25:51.896Z,0.00
2022-10-10T04:26:51.856Z,0.00
2022-10-10T04:27:51.842Z,0.00
2022-10-10T04:28:51.850Z,0.00
2022-10-10T04:29:51.844Z,0.00
2022-10-10T04:30:51.809Z,0.00
2022-10-10T04:31:51.800Z,0.00
2022-10-10T04:32:52.232Z,0.00
2022-10-10T04:33:51.792Z,0.00
2022-10-10T04:34:51.768Z,0.00
2022-10-10T04:35:51.757Z,0.00
2022-10-10T04:36:51.744Z,0.00
2022-10-10T04:37:51.736Z,0.00
2022-10-10T04:38:51.733Z,0.00
2022-10-10T04:39:51.715Z,0.00
2022-10-10T04:40:51.702Z,0.00
2022-10-10T04:41:51.708Z,0.00
2022-10-10T04:42:52.031Z,0.00
2022-10-10T04:43:51.690Z,0.00
2022-10-10T04:44:51.658Z,0.00
2022-10-10T04:45:51.648Z,4.00
2022-10-10T04:46:51.636Z,4.00
2022-10-10T04:47:51.649Z,0.00
2022-10-10T04:48:51.628Z,0.00
2022-10-10T04:49:51.609Z,4.00
2022-10-10T04:50:51.595Z,0.00
2022-10-10T04:51:51.597Z,4.00
2022-10-10T04:52:51.970Z,4.00
2022-10-10T04:53:51.574Z,4.00
2022-10-10T04:54:51.551Z,4.00
2022-10-10T04:55:51.540Z,4.00
2022-10-10T04:56:51.529Z,8.00
2022-10-10T04:57:51.535Z,8.00
2022-10-10T04:58:51.519Z,8.00
2022-10-10T04:59:51.496Z,8.00
2022-10-10T05:00:51.488Z,12.00
2022-10-10T05:01:51.473Z,12.00
2022-10-10T05:02:51.747Z,16.00
2022-10-10T05:03:51.467Z,16.00
2022-10-10T05:04:51.445Z,24.00
2022-10-10T05:05:51.438Z,24.00
2022-10-10T05:06:51.426Z,32.00
2022-10-10T05:07:55.331Z,32.00
2022-10-10T05:08:51.414Z,40.00
2022-10-10T05:09:51.387Z,48.00
2022-10-10T05:10:51.379Z,52.00
2022-10-10T05:11:51.369Z,60.00
2022-10-10T05:12:51.740Z,68.00
2022-10-10T05:13:51.373Z,76.00
2022-10-10T05:14:51.335Z,84.00
2022-10-10T05:15:51.325Z,96.00
2022-10-10T05:16:51.318Z,104.00
2022-10-10T05:17:51.303Z,116.00
2022-10-10T05:18:51.306Z,128.00
2022-10-10T05:19:51.281Z,140.00
2022-10-10T05:20:51.272Z,156.00
2022-10-10T05:21:51.259Z,168.00
2022-10-10T05:22:51.594Z,184.00
2022-10-10T05:23:51.255Z,196.00
2022-10-10T05:24:51.228Z,216.00
2022-10-10T05:25:51.215Z,236.00
2022-10-10T05:26:51.208Z,248.00
2022-10-10T05:27:51.193Z,272.00
2022-10-10T05:28:51.195Z,292.00
2022-10-10T05:29:51.188Z,312.00
2022-10-10T05:30:51.178Z,332.00
2022-10-10T05:31:51.150Z,356.00
2022-10-10T05:32:51.348Z,380.00
2022-10-10T05:33:51.139Z,412.00
2022-10-10T05:34:51.118Z,436.00
2022-10-10T05:35:51.108Z,460.00
2022-10-10T05:36:51.100Z,488.00
2022-10-10T05:37:51.086Z,516.00
2022-10-10T05:38:51.095Z,584.00
2022-10-10T05:39:54.560Z,660.00
2022-10-10T05:40:51.075Z,768.00
2022-10-10T05:41:51.047Z,880.00
2022-10-10T05:42:51.275Z,1052.00
2022-10-10T05:43:51.030Z,832.00
2022-10-10T05:44:51.014Z,760.00
2022-10-10T05:45:51.027Z,820.00
2022-10-10T05:46:50.990Z,860.00
2022-10-10T05:47:50.978Z,848.00
2022-10-10T05:48:50.994Z,904.00
2022-10-10T05:49:50.956Z,944.00
2022-10-10T05:50:50.946Z,988.00
2022-10-10T05:51:50.935Z,1032.00
2022-10-10T05:52:51.138Z,1104.00
2022-10-10T05:53:50.921Z,1252.00
2022-10-10T05:54:50.903Z,1420.00
2022-10-10T05:55:50.897Z,1452.00
2022-10-10T05:56:50.882Z,1408.00
2022-10-10T05:57:50.869Z,1548.00
2022-10-10T05:58:50.869Z,1576.00
2022-10-10T05:59:50.846Z,1620.00
2022-10-10T06:00:50.836Z,1692.00
2022-10-10T06:01:50.896Z,1852.00
2022-10-10T06:02:51.175Z,2072.00
2022-10-10T06:03:50.815Z,1808.00
2022-10-10T06:04:50.794Z,1968.00
2022-10-10T06:05:50.781Z,2144.00
2022-10-10T06:06:50.773Z,2560.00
2022-10-10T06:08:11.584Z,3216.00
2022-10-10T06:08:51.751Z,3032.00
2022-10-10T06:09:50.738Z,3764.00
2022-10-10T06:10:50.729Z,5260.00
2022-10-10T06:11:50.718Z,4424.00
2022-10-10T06:12:51.099Z,4248.00
2022-10-10T06:13:50.694Z,8336.00
2022-10-10T06:14:50.686Z,7980.00
2022-10-10T06:15:50.673Z,6244.00
2022-10-10T06:16:50.664Z,3420.00
2022-10-10T06:17:50.708Z,2000.00
2022-10-10T06:18:50.644Z,1500.00
2022-10-10T06:19:50.632Z,1440.00
2022-10-10T06:20:50.633Z,1308.00
2022-10-10T06:21:50.612Z,1292.00
2022-10-10T06:22:50.868Z,1272.00
2022-10-10T06:23:50.600Z,1276.00
2022-10-10T06:24:53.008Z,1312.00
2022-10-10T06:25:50.567Z,1364.00
2022-10-10T06:26:50.564Z,1428.00
2022-10-10T06:27:50.543Z,1516.00
2022-10-10T06:28:50.550Z,1636.00
2022-10-10T06:29:50.534Z,1792.00
2022-10-10T06:30:50.515Z,2056.00
2022-10-10T06:31:50.521Z,2436.00
2022-10-10T06:32:53.605Z,3032.00
2022-10-10T06:33:51.517Z,4216.00
2022-10-10T06:34:50.469Z,9780.00
2022-10-10T06:35:50.457Z,19648.00
2022-10-10T06:36:50.449Z,20544.00
2022-10-10T06:37:50.437Z,20192.00
2022-10-10T06:38:50.463Z,20192.00
2022-10-10T06:39:50.416Z,21024.00
2022-10-10T06:40:50.405Z,22336.00
2022-10-10T06:41:50.393Z,23040.00
2022-10-10T06:42:50.695Z,23072.00
2022-10-10T06:43:50.380Z,23776.00
2022-10-10T06:44:50.364Z,24448.00
2022-10-10T06:45:50.346Z,24928.00
2022-10-10T06:46:50.345Z,26080.00
2022-10-10T06:47:50.363Z,25696.00
2022-10-10T06:48:50.327Z,24800.00
2022-10-10T06:49:50.322Z,25024.00
2022-10-10T06:50:50.295Z,25952.00
2022-10-10T06:51:50.282Z,26784.00
2022-10-10T06:52:50.596Z,26368.00
2022-10-10T06:53:50.270Z,27584.00
2022-10-10T06:54:50.250Z,28704.00
2022-10-10T06:55:50.242Z,29664.00
2022-10-10T06:56:50.228Z,29856.00
2022-10-10T06:57:50.216Z,29312.00
2022-10-10T06:58:50.258Z,31232.00
2022-10-10T06:59:50.194Z,32480.00
2022-10-10T07:00:50.186Z,32864.00
2022-10-10T07:01:50.208Z,18656.00
2022-10-10T07:02:50.409Z,9320.00
2022-10-10T07:03:50.163Z,17760.00
2022-10-10T07:04:50.142Z,26400.00
2022-10-10T07:05:50.145Z,33344.00
2022-10-10T07:06:50.122Z,24352.00
2022-10-10T07:07:50.107Z,22464.00
2022-10-10T07:08:50.111Z,15680.00
2022-10-10T07:09:50.096Z,24480.00
2022-10-10T07:10:50.080Z,14552.00
2022-10-10T07:11:50.066Z,19776.00
2022-10-10T07:12:50.057Z,35520.00
2022-10-10T07:13:50.061Z,22208.00
2022-10-10T07:14:50.034Z,13560.00
2022-10-10T07:15:50.023Z,33056.00
2022-10-10T07:16:50.017Z,42112.00
2022-10-10T07:17:54.226Z,12364.00
2022-10-10T07:18:50.008Z,12736.00
2022-10-10T07:19:49.980Z,8112.00
2022-10-10T07:20:49.971Z,9252.00
2022-10-10T07:21:49.977Z,5892.00
2022-10-10T07:22:50.238Z,4692.00
2022-10-10T07:23:49.949Z,4232.00
2022-10-10T07:24:49.943Z,4288.00
2022-10-10T07:25:49.919Z,4624.00
2022-10-10T07:26:49.904Z,4876.00
2022-10-10T07:27:49.946Z,7600.00
2022-10-10T07:28:49.904Z,11556.00
2022-10-10T07:29:49.869Z,6984.00
2022-10-10T07:30:49.859Z,6572.00
2022-10-10T07:31:49.848Z,6848.00
2022-10-10T07:32:50.185Z,8392.00
2022-10-10T07:33:50.815Z,15776.00
2022-10-10T07:34:49.816Z,15788.00
2022-10-10T07:35:49.804Z,10028.00
2022-10-10T07:36:49.796Z,18816.00
2022-10-10T07:37:49.803Z,20928.00
2022-10-10T07:38:49.783Z,14452.00
2022-10-10T07:39:49.762Z,21280.00
2022-10-10T07:40:49.753Z,28416.00
2022-10-10T07:41:49.740Z,51232.00
2022-10-10T07:42:50.024Z,26176.00
2022-10-10T07:43:49.747Z,28640.00
2022-10-10T07:44:49.708Z,9288.00
2022-10-10T07:45:49.744Z,9844.00
2022-10-10T07:46:49.695Z,10012.00
2022-10-10T07:47:49.941Z,15260.00
2022-10-10T07:48:49.707Z,10424.00
2022-10-10T07:49:49.651Z,13348.00
2022-10-10T07:50:49.641Z,10700.00
2022-10-10T07:51:49.631Z,10748.00
2022-10-10T07:52:49.619Z,11596.00
2022-10-10T07:53:49.634Z,11948.00
2022-10-10T07:54:49.599Z,12576.00
2022-10-10T07:55:49.584Z,17152.00
2022-10-10T07:56:49.575Z,11832.00
2022-10-10T07:57:53.171Z,11236.00
2022-10-10T07:58:49.565Z,10168.00
2022-10-10T07:59:49.545Z,11536.00
2022-10-10T08:00:49.532Z,9236.00
2022-10-10T08:01:57.162Z,8136.00
2022-10-10T08:02:49.508Z,8656.00
2022-10-10T08:03:49.508Z,14020.00
2022-10-10T08:04:49.490Z,9868.00
2022-10-10T08:05:49.474Z,11564.00
2022-10-10T08:06:49.505Z,9728.00
2022-10-10T08:07:49.794Z,9164.00
2022-10-10T08:08:51.672Z,10928.00
2022-10-10T08:09:49.447Z,12948.00
2022-10-10T08:10:49.423Z,27328.00
2022-10-10T08:11:49.409Z,37632.00
2022-10-10T08:12:49.421Z,65280.00
2022-10-10T08:13:49.399Z,63424.00
2022-10-10T08:14:49.379Z,43232.00
2022-10-10T08:15:49.364Z,51520.00
2022-10-10T08:16:49.356Z,38272.00
2022-10-10T08:17:49.659Z,33248.00
2022-10-10T08:18:49.343Z,36256.00
2022-10-10T08:19:49.321Z,41344.00
2022-10-10T08:20:49.313Z,49888.00
2022-10-10T08:21:49.305Z,41792.00
2022-10-10T08:22:49.637Z,35424.00
2022-10-10T08:23:49.297Z,38464.00
2022-10-10T08:24:49.310Z,37216.00
2022-10-10T08:25:49.274Z,19232.00
2022-10-10T08:26:49.280Z,14272.00
2022-10-10T08:27:49.234Z,26976.00
2022-10-10T08:28:49.343Z,33696.00
2022-10-10T08:29:49.212Z,28160.00
2022-10-10T08:30:49.219Z,21792.00
2022-10-10T08:31:49.194Z,27072.00
2022-10-10T08:32:49.542Z,30048.00
2022-10-10T08:33:49.180Z,27488.00
2022-10-10T08:34:49.163Z,21920.00
2022-10-10T08:35:49.148Z,29248.00
2022-10-10T08:36:49.137Z,41024.00
2022-10-10T08:37:49.129Z,49344.00
2022-10-10T08:38:49.138Z,53760.00
2022-10-10T08:39:49.112Z,56480.00
2022-10-10T08:40:49.097Z,59936.00
2022-10-10T08:41:49.151Z,47296.00
2022-10-10T08:42:52.686Z,48608.00
2022-10-10T08:43:49.073Z,60096.00
2022-10-10T08:44:49.054Z,39168.00
2022-10-10T08:45:49.040Z,37248.00
2022-10-10T08:46:49.031Z,38560.00
2022-10-10T08:47:49.018Z,39392.00
2022-10-10T08:48:49.021Z,55040.00
2022-10-10T08:49:49.019Z,37696.00
2022-10-10T08:50:48.988Z,14272.00
2022-10-10T08:51:48.978Z,45920.00
2022-10-10T08:52:49.361Z,60224.00
2022-10-10T08:53:48.974Z,52160.00
2022-10-10T08:54:48.946Z,41632.00
2022-10-10T08:55:48.933Z,57024.00
2022-10-10T08:56:48.923Z,63264.00
2022-10-10T08:57:48.930Z,54848.00
2022-10-10T08:58:48.915Z,62016.00
2022-10-10T08:59:48.980Z,61984.00
2022-10-10T09:00:48.944Z,68064.00
2022-10-10T09:02:18.328Z,65792.00
2022-10-10T09:02:53.949Z,62112.00
2022-10-10T09:03:48.858Z,61312.00
2022-10-10T09:04:48.836Z,51456.00
2022-10-10T09:05:48.838Z,46464.00
2022-10-10T09:06:48.826Z,56768.00
2022-10-10T09:07:48.801Z,62336.00
2022-10-10T09:08:48.800Z,67552.00
2022-10-10T09:09:48.873Z,60416.00
2022-10-10T09:10:48.769Z,58496.00
2022-10-10T09:11:48.762Z,59040.00
2022-10-10T09:12:48.755Z,55616.00
2022-10-10T09:13:48.872Z,59168.00
2022-10-10T09:14:48.725Z,63008.00
2022-10-10T09:15:48.716Z,65344.00
2022-10-10T09:16:48.706Z,59488.00
2022-10-10T09:17:48.697Z,56512.00
2022-10-10T09:18:48.699Z,60832.00
2022-10-10T09:19:48.789Z,67136.00
2022-10-10T09:20:48.662Z,71168.00
2022-10-10T09:21:48.652Z,72352.00
2022-10-10T09:22:48.641Z,70912.00
2022-10-10T09:23:48.640Z,72544.00
2022-10-10T09:24:48.619Z,67776.00
2022-10-10T09:25:48.607Z,68832.00
2022-10-10T09:26:48.596Z,66176.00
2022-10-10T09:27:48.596Z,68608.00
2022-10-10T09:28:48.651Z,73856.00
2022-10-10T09:29:48.688Z,78048.00
2022-10-10T09:30:48.554Z,82048.00
2022-10-10T09:31:48.544Z,84000.00
2022-10-10T09:32:48.539Z,82112.00
2022-10-10T09:33:48.539Z,82688.00
2022-10-10T09:34:48.511Z,82240.00
2022-10-10T09:35:48.501Z,80416.00
2022-10-10T09:36:48.490Z,81312.00
2022-10-10T09:37:48.482Z,80320.00
2022-10-10T09:38:48.483Z,78912.00
2022-10-10T09:39:48.463Z,79168.00
2022-10-10T09:40:48.449Z,76224.00
2022-10-10T09:41:48.441Z,76576.00
2022-10-10T09:42:48.429Z,70400.00
2022-10-10T09:43:48.436Z,68256.00
2022-10-10T09:44:48.409Z,66144.00
2022-10-10T09:45:48.417Z,73376.00
2022-10-10T09:46:48.387Z,71264.00
2022-10-10T09:47:48.381Z,68992.00
2022-10-10T09:48:48.377Z,72608.00
2022-10-10T09:49:48.361Z,73472.00
2022-10-10T09:50:48.347Z,75648.00
2022-10-10T09:51:48.337Z,78048.00
2022-10-10T09:52:48.326Z,77792.00
2022-10-10T09:53:48.334Z,76320.00
2022-10-10T09:54:48.305Z,72224.00
2022-10-10T09:55:48.327Z,74560.00
2022-10-10T09:56:48.284Z,75072.00
2022-10-10T09:57:48.275Z,66464.00
2022-10-10T09:58:48.276Z,38304.00
2022-10-10T09:59:48.254Z,13056.00
2022-10-10T10:00:48.283Z,26784.00
2022-10-10T10:01:48.289Z,25312.00
2022-10-10T10:02:48.224Z,16960.00
2022-10-10T10:03:48.224Z,14220.00
2022-10-10T10:04:48.202Z,9936.00
2022-10-10T10:05:48.192Z,7936.00
2022-10-10T10:06:48.179Z,6940.00
2022-10-10T10:07:48.171Z,6324.00
2022-10-10T10:08:49.981Z,5972.00
2022-10-10T10:09:48.150Z,5800.00
2022-10-10T10:10:48.138Z,5800.00
2022-10-10T10:11:48.134Z,6364.00
2022-10-10T10:12:48.114Z,6824.00
2022-10-10T10:13:48.116Z,20480.00
2022-10-10T10:14:48.093Z,20832.00
2022-10-10T10:15:48.086Z,21728.00
2022-10-10T10:16:48.072Z,15156.00
2022-10-10T10:17:48.203Z,26048.00
2022-10-10T10:18:48.053Z,31200.00
2022-10-10T10:19:48.041Z,29216.00
2022-10-10T10:20:48.028Z,29312.00
2022-10-10T10:21:48.017Z,29984.00
2022-10-10T10:22:48.054Z,40128.00
2022-10-10T10:23:48.056Z,13756.00
2022-10-10T10:24:47.985Z,10340.00
2022-10-10T10:25:47.975Z,10224.00
2022-10-10T10:26:47.962Z,9268.00
2022-10-10T10:27:47.952Z,9296.00
2022-10-10T10:28:48.016Z,8968.00
2022-10-10T10:29:47.932Z,8572.00
2022-10-10T10:30:47.920Z,8204.00
2022-10-10T10:31:47.908Z,7832.00
2022-10-10T10:32:47.907Z,7464.00
2022-10-10T10:33:48.004Z,7456.00
2022-10-10T10:34:47.871Z,7108.00
2022-10-10T10:35:47.868Z,7096.00
2022-10-10T10:36:47.859Z,7204.00
2022-10-10T10:37:47.858Z,7196.00
2022-10-10T10:38:47.830Z,7392.00
2022-10-10T10:39:47.821Z,7432.00
2022-10-10T10:40:47.808Z,7140.00
2022-10-10T10:41:47.800Z,7112.00
2022-10-10T10:42:47.808Z,7220.00
2022-10-10T10:43:47.779Z,7712.00
2022-10-10T10:44:47.774Z,9008.00
2022-10-10T10:45:47.756Z,10084.00
2022-10-10T10:46:47.744Z,10740.00
2022-10-10T10:47:47.747Z,11200.00
2022-10-10T10:48:47.733Z,11524.00
2022-10-10T10:49:47.731Z,11164.00
2022-10-10T10:50:47.700Z,10576.00
2022-10-10T10:51:47.691Z,10216.00
2022-10-10T10:52:47.688Z,9856.00
2022-10-10T10:53:47.670Z,9916.00
2022-10-10T10:54:47.665Z,9640.00
2022-10-10T10:55:47.649Z,9156.00
2022-10-10T10:56:47.637Z,8092.00
2022-10-10T10:58:05.171Z,7112.00
2022-10-10T10:59:15.800Z,6280.00
2022-10-10T11:00:21.646Z,5732.00
2022-10-10T11:01:23.405Z,5348.00
2022-10-10T11:01:57.798Z,4936.00
2022-10-10T11:02:59.646Z,4908.00
2022-10-10T11:05:16.629Z,4776.00
2022-10-10T11:05:18.786Z,4628.00
2022-10-10T11:05:48.706Z,4588.00
2022-10-10T11:06:59.975Z,4520.00
2022-10-10T11:07:48.625Z,4420.00
2022-10-10T11:08:47.520Z,4364.00
2022-10-10T11:09:50.960Z,4416.00
2022-10-10T11:10:47.483Z,4452.00
2022-10-10T11:11:47.473Z,4444.00
2022-10-10T11:12:47.472Z,4420.00
2022-10-10T11:13:47.464Z,4388.00
2022-10-10T11:14:47.446Z,4340.00
2022-10-10T11:16:05.505Z,4264.00
2022-10-10T11:16:49.353Z,4184.00
2022-10-10T11:17:47.423Z,4136.00
2022-10-10T11:18:47.411Z,4104.00
2022-10-10T11:19:47.384Z,4040.00
2022-10-10T11:20:47.393Z,3996.00
2022-10-10T11:21:47.386Z,3964.00
2022-10-10T11:22:47.351Z,3912.00
2022-10-10T11:23:47.356Z,3880.00
2022-10-10T11:24:47.344Z,3844.00
2022-10-10T11:25:47.317Z,3828.00
2022-10-10T11:26:47.309Z,3864.00
2022-10-10T11:27:47.297Z,3924.00
2022-10-10T11:28:49.577Z,3792.00
2022-10-10T11:29:47.275Z,3680.00
2022-10-10T11:30:47.261Z,3908.00
2022-10-10T11:31:47.252Z,4784.00
2022-10-10T11:32:47.240Z,5364.00
2022-10-10T11:33:47.242Z,5608.00
2022-10-10T11:34:47.217Z,6016.00
2022-10-10T11:35:47.214Z,6172.00
2022-10-10T11:36:47.197Z,6292.00
2022-10-10T11:37:47.208Z,6184.00
2022-10-10T11:38:47.182Z,6120.00
2022-10-10T11:39:47.166Z,5940.00
2022-10-10T11:40:47.153Z,5692.00
2022-10-10T11:41:47.143Z,5556.00
2022-10-10T11:42:47.131Z,5404.00
2022-10-10T11:43:47.131Z,5280.00
2022-10-10T11:44:47.107Z,5180.00
2022-10-10T11:45:49.765Z,5016.00
2022-10-10T11:46:48.085Z,4728.00
2022-10-10T11:47:47.077Z,4452.00
2022-10-10T11:48:47.074Z,4212.00
2022-10-10T11:49:47.055Z,3968.00
2022-10-10T11:50:47.043Z,3748.00
2022-10-10T11:51:47.033Z,3548.00
2022-10-10T11:52:47.020Z,3404.00
2022-10-10T11:53:47.036Z,3300.00
2022-10-10T11:54:47.006Z,3224.00
2022-10-10T11:55:46.988Z,3156.00
2022-10-10T11:56:46.978Z,3120.00
2022-10-10T11:57:46.968Z,3064.00
2022-10-10T11:58:46.963Z,3048.00
2022-10-10T11:59:46.946Z,3008.00
2022-10-10T12:00:46.931Z,2976.00
2022-10-10T12:01:47.003Z,2956.00
2022-10-10T12:02:46.909Z,2916.00
2022-10-10T12:03:46.910Z,2880.00
2022-10-10T12:04:46.886Z,2856.00
2022-10-10T12:05:46.880Z,2824.00
2022-10-10T12:06:46.866Z,2844.00
2022-10-10T12:07:46.858Z,2808.00
2022-10-10T12:08:46.851Z,2812.00
2022-10-10T12:09:46.852Z,2788.00
2022-10-10T12:10:46.821Z,2772.00
2022-10-10T12:11:46.812Z,2752.00
2022-10-10T12:12:46.810Z,2740.00
2022-10-10T12:13:46.790Z,2724.00
2022-10-10T12:14:46.783Z,2696.00
2022-10-10T12:15:49.969Z,2680.00
2022-10-10T12:16:46.758Z,2672.00
2022-10-10T12:17:46.758Z,2636.00
2022-10-10T12:18:46.733Z,2624.00
2022-10-10T12:19:46.728Z,2596.00
2022-10-10T12:20:46.735Z,2572.00
2022-10-10T12:21:46.703Z,2604.00
2022-10-10T12:22:46.704Z,2552.00
2022-10-10T12:23:46.679Z,2528.00
2022-10-10T12:24:50.169Z,2516.00
2022-10-10T12:25:46.691Z,2512.00
2022-10-10T12:26:46.646Z,2476.00
2022-10-10T12:27:46.649Z,2472.00
2022-10-10T12:28:46.729Z,2484.00
2022-10-10T12:29:50.718Z,2472.00